createdAt,value
2023-05-19T00:01:19.263Z,93.60
2023-05-19T00:03:59.004Z,93.40
2023-05-19T00:06:31.705Z,93.20
2023-05-19T00:09:02.571Z,92.40
2023-05-19T00:11:30.049Z,91.90
2023-05-19T00:13:59.798Z,91.60
2023-05-19T00:16:28.444Z,92.20
2023-05-19T00:18:58.045Z,92.10
2023-05-19T00:21:24.910Z,91.80
2023-05-19T00:23:52.151Z,92.10
2023-05-19T00:26:19.031Z,92.00
2023-05-19T00:28:55.083Z,92.70
2023-05-19T00:31:22.095Z,93.40
2023-05-19T00:33:49.107Z,92.80
2023-05-19T00:36:16.323Z,92.40
2023-05-19T00:38:43.218Z,92.30
2023-05-19T00:41:10.942Z,92.80
2023-05-19T00:43:37.831Z,93.20
2023-05-19T00:46:04.812Z,93.10
2023-05-19T00:48:31.742Z,93.40
2023-05-19T00:51:04.493Z,93.20
2023-05-19T00:53:35.427Z,93.90
2023-05-19T00:56:03.691Z,93.50
2023-05-19T00:58:32.681Z,93.30
2023-05-19T01:01:05.268Z,93.90
2023-05-19T01:03:37.102Z,93.80
2023-05-19T01:06:07.955Z,93.20
2023-05-19T01:08:37.396Z,93.70
2023-05-19T01:11:08.021Z,94.00
2023-05-19T01:13:36.264Z,94.20
2023-05-19T01:16:07.135Z,93.50
2023-05-19T01:18:44.606Z,93.70
2023-05-19T01:21:23.544Z,93.40
2023-05-19T01:24:23.264Z,93.20
2023-05-19T01:27:16.303Z,93.10
2023-05-19T01:30:11.768Z,91.40
2023-05-19T01:32:41.568Z,92.80
2023-05-19T01:35:10.296Z,92.00
2023-05-19T01:37:39.021Z,91.90
2023-05-19T01:40:07.970Z,92.00
2023-05-19T01:42:37.944Z,92.10
2023-05-19T01:45:06.767Z,92.10
2023-05-19T01:47:38.392Z,91.60
2023-05-19T01:50:06.131Z,91.30
2023-05-19T01:52:33.439Z,91.70
2023-05-19T01:55:00.517Z,92.30
2023-05-19T01:57:27.400Z,92.20
2023-05-19T02:00:15.725Z,92.40
2023-05-19T02:02:51.494Z,92.70
2023-05-19T02:05:38.392Z,92.20
2023-05-19T02:08:08.212Z,92.50
2023-05-19T02:10:40.928Z,91.90
2023-05-19T02:13:11.305Z,92.10
2023-05-19T02:15:40.277Z,92.20
2023-05-19T02:18:11.445Z,91.60
2023-05-19T02:20:39.840Z,91.70
2023-05-19T02:23:07.234Z,91.30
2023-05-19T02:25:34.878Z,91.40
2023-05-19T02:28:01.817Z,91.40
2023-05-19T02:30:31.897Z,91.60
2023-05-19T02:33:00.614Z,92.00
2023-05-19T02:35:28.060Z,92.90
2023-05-19T02:37:55.108Z,93.20
2023-05-19T02:40:22.965Z,92.80
2023-05-19T02:42:50.278Z,93.10
2023-05-19T02:45:17.636Z,92.50
2023-05-19T02:47:44.711Z,92.80
2023-05-19T02:50:11.750Z,93.30
2023-05-19T02:52:38.634Z,92.90
2023-05-19T02:55:06.049Z,92.90
2023-05-19T02:57:34.603Z,92.80
2023-05-19T03:00:01.723Z,92.90
2023-05-19T03:02:28.856Z,93.30
2023-05-19T03:04:55.869Z,93.50
2023-05-19T03:07:25.362Z,94.00
2023-05-19T03:09:53.025Z,94.10
2023-05-19T03:12:19.943Z,93.70
2023-05-19T03:14:47.520Z,93.90
2023-05-19T03:17:14.533Z,94.10
2023-05-19T03:19:41.626Z,94.20
2023-05-19T03:22:08.603Z,94.20
2023-05-19T03:24:36.835Z,94.10
2023-05-19T03:27:05.820Z,94.40
2023-05-19T03:29:33.125Z,94.30
2023-05-19T03:32:00.337Z,94.20
2023-05-19T03:34:27.387Z,94.40
2023-05-19T03:36:55.010Z,94.30
2023-05-19T03:39:22.733Z,93.40
2023-05-19T03:41:49.945Z,92.80
2023-05-19T03:44:16.876Z,93.90
2023-05-19T03:46:44.408Z,93.30
2023-05-19T03:49:11.853Z,92.60
2023-05-19T03:52:03.394Z,93.10
2023-05-19T03:54:53.063Z,93.20
2023-05-19T03:57:20.126Z,93.20
2023-05-19T03:59:47.782Z,93.20
2023-05-19T04:02:14.737Z,93.30
2023-05-19T04:04:42.135Z,92.90
2023-05-19T04:07:11.723Z,93.30
2023-05-19T04:09:39.035Z,93.70
2023-05-19T04:12:06.353Z,93.90
2023-05-19T04:14:33.300Z,94.50
2023-05-19T04:17:00.644Z,94.90
2023-05-19T04:19:27.709Z,93.90
2023-05-19T04:21:55.669Z,94.80
2023-05-19T04:24:22.634Z,94.20
2023-05-19T04:26:49.677Z,94.60
2023-05-19T04:29:18.380Z,94.60
2023-05-19T04:31:45.730Z,94.20
2023-05-19T04:34:12.681Z,94.50
2023-05-19T04:36:39.907Z,94.90
2023-05-19T04:39:09.612Z,94.20
2023-05-19T04:41:40.495Z,94.30
2023-05-19T04:44:09.322Z,94.50
2023-05-19T04:46:37.376Z,94.20
2023-05-19T04:49:05.615Z,94.60
2023-05-19T04:51:32.683Z,94.60
2023-05-19T04:54:01.563Z,94.50
2023-05-19T04:56:28.923Z,94.10
2023-05-19T04:58:56.709Z,93.50
2023-05-19T05:01:26.112Z,94.60
2023-05-19T05:03:55.416Z,93.90
2023-05-19T05:06:22.524Z,94.60
2023-05-19T05:08:49.688Z,93.10
2023-05-19T05:11:17.522Z,92.90
2023-05-19T05:13:45.116Z,93.30
2023-05-19T05:16:12.893Z,93.50
2023-05-19T05:18:41.684Z,93.30
2023-05-19T05:21:11.101Z,93.70
2023-05-19T05:23:38.289Z,93.80
2023-05-19T05:26:17.425Z,93.10
2023-05-19T05:28:45.910Z,92.60
2023-05-19T05:31:12.970Z,91.90
2023-05-19T05:33:41.421Z,91.60
2023-05-19T05:36:09.270Z,93.00
2023-05-19T05:38:36.244Z,92.10
2023-05-19T05:41:03.498Z,92.50
2023-05-19T05:43:31.193Z,91.10
2023-05-19T05:46:00.980Z,90.90
2023-05-19T05:48:28.257Z,91.90
2023-05-19T05:50:57.225Z,92.40
2023-05-19T05:53:32.163Z,91.50
2023-05-19T05:56:01.280Z,90.90
2023-05-19T05:58:37.818Z,92.10
2023-05-19T06:01:05.471Z,92.00
2023-05-19T06:03:33.562Z,91.10
2023-05-19T06:06:05.114Z,91.50
2023-05-19T06:08:32.272Z,90.50
2023-05-19T06:10:59.291Z,88.10
2023-05-19T06:13:27.878Z,90.50
2023-05-19T06:15:54.957Z,90.00
2023-05-19T06:18:30.704Z,90.30
2023-05-19T06:20:57.723Z,90.60
2023-05-19T06:23:26.755Z,90.80
2023-05-19T06:25:53.768Z,91.30
2023-05-19T06:28:20.954Z,91.50
2023-05-19T06:30:48.142Z,91.10
2023-05-19T06:33:29.131Z,91.00
2023-05-19T06:35:56.570Z,90.80
2023-05-19T06:38:23.538Z,91.40
2023-05-19T06:40:50.917Z,88.60
2023-05-19T06:43:18.530Z,90.30
2023-05-19T06:45:53.929Z,90.30
2023-05-19T06:48:22.003Z,90.40
2023-05-19T06:50:49.160Z,90.50
2023-05-19T06:53:17.496Z,90.10
2023-05-19T06:55:57.563Z,89.20
2023-05-19T06:58:28.004Z,89.00
2023-05-19T07:00:55.642Z,87.50
2023-05-19T07:03:24.979Z,89.70
2023-05-19T07:05:52.128Z,88.10
2023-05-19T07:08:19.055Z,90.60
2023-05-19T07:10:45.983Z,88.30
2023-05-19T07:13:15.163Z,89.90
2023-05-19T07:15:42.123Z,87.40
2023-05-19T07:18:09.415Z,86.40
2023-05-19T07:20:36.389Z,87.10
2023-05-19T07:23:05.279Z,84.60
2023-05-19T07:25:33.253Z,85.80
2023-05-19T07:28:00.671Z,83.70
2023-05-19T07:30:28.711Z,86.10
2023-05-19T07:32:56.062Z,83.70
2023-05-19T07:35:23.074Z,83.20
2023-05-19T07:37:51.880Z,83.10
2023-05-19T07:40:19.111Z,84.00
2023-05-19T07:42:46.235Z,83.40
2023-05-19T07:45:13.250Z,81.40
2023-05-19T07:47:40.217Z,83.20
2023-05-19T07:50:07.785Z,84.00
2023-05-19T07:52:34.800Z,82.80
2023-05-19T07:55:01.718Z,85.30
2023-05-19T07:57:28.601Z,83.90
2023-05-19T07:59:55.655Z,81.00
2023-05-19T08:02:22.714Z,84.30
2023-05-19T08:04:49.950Z,83.50
2023-05-19T08:07:16.878Z,82.90
2023-05-19T08:09:43.807Z,83.60
2023-05-19T08:12:10.899Z,79.40
2023-05-19T08:14:37.813Z,81.20
2023-05-19T08:17:05.010Z,82.30
2023-05-19T08:19:32.134Z,80.00
2023-05-19T08:22:01.197Z,80.70
2023-05-19T08:24:32.731Z,79.50
2023-05-19T08:26:59.880Z,80.50
2023-05-19T08:29:26.812Z,80.10
2023-05-19T08:31:53.787Z,80.30
2023-05-19T08:34:20.863Z,79.10
2023-05-19T08:36:47.897Z,78.80
2023-05-19T08:39:16.302Z,75.90
2023-05-19T08:41:43.376Z,79.60
2023-05-19T08:44:10.418Z,81.70
2023-05-19T08:46:37.412Z,79.80
2023-05-19T08:49:11.535Z,77.90
2023-05-19T08:52:13.759Z,78.20
2023-05-19T08:54:50.875Z,79.90
2023-05-19T08:57:18.741Z,77.20
2023-05-19T08:59:46.023Z,76.30
2023-05-19T09:02:14.301Z,75.30
2023-05-19T09:04:45.816Z,77.60
2023-05-19T09:07:16.771Z,78.80
2023-05-19T09:09:44.150Z,79.20
2023-05-19T09:12:11.696Z,79.20
2023-05-19T09:14:39.136Z,77.60
2023-05-19T09:17:06.624Z,79.90
2023-05-19T09:19:33.891Z,79.20
2023-05-19T09:22:03.862Z,78.60
2023-05-19T09:24:31.630Z,79.20
2023-05-19T09:27:00.063Z,80.90
2023-05-19T09:29:27.624Z,78.80
2023-05-19T09:32:00.534Z,79.40
2023-05-19T09:34:28.006Z,79.10
2023-05-19T09:36:55.172Z,79.30
2023-05-19T09:39:25.864Z,79.50
2023-05-19T09:41:54.147Z,82.60
2023-05-19T09:44:23.754Z,79.50
2023-05-19T09:46:51.849Z,81.50
2023-05-19T09:49:32.772Z,82.40
2023-05-19T09:52:03.650Z,81.20
2023-05-19T09:54:32.531Z,81.80
2023-05-19T09:57:04.090Z,82.80
2023-05-19T09:59:33.448Z,82.40
2023-05-19T10:02:01.611Z,83.20
2023-05-19T10:04:29.950Z,78.60
2023-05-19T10:07:00.907Z,79.30
2023-05-19T10:09:29.436Z,79.90
2023-05-19T10:11:57.923Z,82.00
2023-05-19T10:14:26.865Z,79.10
2023-05-19T10:16:55.482Z,81.40
2023-05-19T10:19:23.996Z,81.50
2023-05-19T10:21:51.787Z,79.70
2023-05-19T10:24:19.686Z,81.80
2023-05-19T10:26:55.101Z,81.30
2023-05-19T10:29:30.098Z,84.00
2023-05-19T10:32:02.475Z,81.50
2023-05-19T10:34:50.182Z,84.40
2023-05-19T10:37:45.054Z,83.30
2023-05-19T10:40:36.756Z,81.80
2023-05-19T10:43:26.091Z,84.10
2023-05-19T10:45:54.413Z,81.80
2023-05-19T10:48:22.439Z,81.10
2023-05-19T10:50:53.232Z,83.10
2023-05-19T10:53:22.530Z,83.40
2023-05-19T10:56:00.139Z,84.70
2023-05-19T10:58:59.494Z,82.10
2023-05-19T11:01:34.874Z,82.80
2023-05-19T11:04:07.490Z,81.80
2023-05-19T11:06:38.720Z,83.50
2023-05-19T11:09:17.930Z,83.60
2023-05-19T11:11:55.210Z,81.20
2023-05-19T11:14:29.109Z,82.20
2023-05-19T11:17:00.648Z,81.90
2023-05-19T11:19:35.429Z,79.60
2023-05-19T11:22:10.869Z,82.80
2023-05-19T11:24:50.007Z,83.50
2023-05-19T11:27:38.390Z,82.70
2023-05-19T11:30:19.145Z,79.10
2023-05-19T11:32:48.404Z,86.30
2023-05-19T11:35:19.052Z,81.70
2023-05-19T11:37:47.687Z,83.50
2023-05-19T11:40:15.832Z,79.00
2023-05-19T11:42:42.702Z,78.90
2023-05-19T11:45:10.437Z,76.80
2023-05-19T11:47:50.812Z,77.60
2023-05-19T11:50:25.464Z,81.20
2023-05-19T11:52:53.187Z,77.70
2023-05-19T11:55:22.233Z,78.00
2023-05-19T11:58:07.315Z,81.90
2023-05-19T12:00:40.256Z,82.50
2023-05-19T12:03:09.173Z,80.90
2023-05-19T12:05:44.790Z,78.50
2023-05-19T12:08:12.420Z,80.30
2023-05-19T12:10:40.269Z,80.00
2023-05-19T12:13:10.717Z,79.30
2023-05-19T12:15:38.745Z,79.90
2023-05-19T12:18:06.759Z,79.70
2023-05-19T12:20:35.999Z,79.80
2023-05-19T12:23:03.930Z,80.60
2023-05-19T12:25:32.099Z,78.90
2023-05-19T12:28:00.856Z,83.90
2023-05-19T12:30:29.186Z,82.40
2023-05-19T12:32:57.967Z,80.10
2023-05-19T12:35:34.605Z,78.70
2023-05-19T12:38:06.160Z,78.90
2023-05-19T12:40:37.557Z,78.30
2023-05-19T12:43:05.778Z,83.30
2023-05-19T12:45:37.280Z,79.80
2023-05-19T12:48:15.963Z,80.80
2023-05-19T12:50:45.103Z,82.40
2023-05-19T12:53:13.105Z,82.20
2023-05-19T12:55:42.857Z,81.60
2023-05-19T12:58:11.532Z,79.50
2023-05-19T13:00:43.918Z,77.20
2023-05-19T13:03:20.964Z,80.40
2023-05-19T13:05:50.343Z,78.50
2023-05-19T13:08:20.046Z,78.40
2023-05-19T13:10:47.593Z,79.00
2023-05-19T13:13:14.474Z,79.30
2023-05-19T13:15:45.992Z,79.00
2023-05-19T13:18:13.953Z,77.60
2023-05-19T13:20:42.923Z,79.50
2023-05-19T13:23:11.080Z,79.60
2023-05-19T13:25:38.557Z,78.80
2023-05-19T13:28:05.853Z,79.10
2023-05-19T13:30:34.837Z,81.40
2023-05-19T13:33:02.805Z,80.60
2023-05-19T13:35:30.741Z,82.80
2023-05-19T13:37:57.897Z,80.70
2023-05-19T13:40:25.991Z,81.60
2023-05-19T13:42:52.900Z,80.70
2023-05-19T13:45:19.835Z,81.80
2023-05-19T13:47:46.900Z,81.50
2023-05-19T13:50:13.780Z,82.20
2023-05-19T13:52:40.991Z,79.80
2023-05-19T13:55:08.386Z,83.20
2023-05-19T13:57:35.579Z,81.20
2023-05-19T14:00:04.463Z,81.10
2023-05-19T14:02:40.844Z,82.40
2023-05-19T14:05:08.617Z,80.20
2023-05-19T14:07:35.884Z,79.70
2023-05-19T14:10:05.412Z,81.60
2023-05-19T14:12:39.761Z,80.50
2023-05-19T14:15:14.611Z,83.70
2023-05-19T14:17:41.954Z,80.20
2023-05-19T14:20:09.718Z,80.20
2023-05-19T14:22:36.678Z,81.30
2023-05-19T14:25:03.891Z,79.80
2023-05-19T14:27:30.817Z,82.20
2023-05-19T14:29:57.871Z,80.10
2023-05-19T14:32:25.289Z,79.20
2023-05-19T14:34:53.283Z,79.90
2023-05-19T14:37:20.750Z,81.40
2023-05-19T14:39:47.688Z,83.00
2023-05-19T14:42:14.742Z,81.10
2023-05-19T14:44:41.678Z,80.40
2023-05-19T14:47:08.718Z,79.60
2023-05-19T14:49:35.711Z,81.60
2023-05-19T14:52:02.695Z,81.60
2023-05-19T14:54:29.615Z,80.90
2023-05-19T14:56:56.515Z,83.60
2023-05-19T14:59:23.481Z,81.40
2023-05-19T15:01:50.346Z,84.40
2023-05-19T15:04:17.336Z,83.90
2023-05-19T15:06:45.222Z,80.90
2023-05-19T15:09:14.874Z,84.20
2023-05-19T15:11:41.828Z,83.30
2023-05-19T15:14:08.788Z,82.70
2023-05-19T15:16:35.859Z,84.20
2023-05-19T15:19:02.833Z,82.50
2023-05-19T15:21:29.871Z,82.40
2023-05-19T15:23:56.733Z,84.70
2023-05-19T15:26:23.635Z,82.90
2023-05-19T15:28:52.319Z,80.80
2023-05-19T15:31:19.251Z,80.20
2023-05-19T15:33:46.294Z,83.40
2023-05-19T15:36:16.421Z,81.60
2023-05-19T15:38:43.413Z,82.40
2023-05-19T15:41:11.078Z,82.10
2023-05-19T15:43:38.674Z,84.10
2023-05-19T15:46:05.625Z,85.60
2023-05-19T15:48:32.824Z,82.80
2023-05-19T15:50:59.954Z,80.90
2023-05-19T15:53:26.973Z,81.90
2023-05-19T15:55:53.939Z,81.10
2023-05-19T15:58:20.914Z,83.50
2023-05-19T16:00:47.896Z,82.60
2023-05-19T16:03:14.981Z,82.80
2023-05-19T16:05:41.886Z,83.30
2023-05-19T16:08:08.979Z,84.80
2023-05-19T16:10:36.064Z,82.80
2023-05-19T16:13:02.984Z,82.10
2023-05-19T16:15:29.860Z,81.30
2023-05-19T16:17:57.258Z,84.10
2023-05-19T16:20:27.866Z,81.70
2023-05-19T16:22:55.470Z,85.10
2023-05-19T16:25:22.748Z,83.30
2023-05-19T16:27:50.337Z,82.00
2023-05-19T16:30:17.536Z,82.40
2023-05-19T16:32:44.739Z,81.50
2023-05-19T16:35:11.790Z,83.90
2023-05-19T16:37:38.776Z,85.40
2023-05-19T16:40:06.341Z,83.30
2023-05-19T16:42:33.219Z,85.60
2023-05-19T16:45:00.122Z,84.50
2023-05-19T16:47:27.097Z,83.00
2023-05-19T16:49:54.151Z,83.40
2023-05-19T16:52:21.024Z,82.80
2023-05-19T16:54:47.986Z,84.50
2023-05-19T16:57:14.956Z,84.50
2023-05-19T16:59:42.601Z,84.30
2023-05-19T17:02:09.485Z,84.60
2023-05-19T17:04:36.487Z,84.00
2023-05-19T17:07:03.460Z,84.90
2023-05-19T17:09:30.463Z,85.40
2023-05-19T17:11:57.411Z,85.90
2023-05-19T17:14:24.307Z,84.60
2023-05-19T17:16:52.521Z,86.00
2023-05-19T17:19:19.581Z,85.40
2023-05-19T17:21:46.547Z,85.10
2023-05-19T17:24:13.434Z,86.50
2023-05-19T17:26:40.408Z,85.90
2023-05-19T17:29:07.336Z,86.30
2023-05-19T17:31:34.273Z,86.60
2023-05-19T17:34:01.263Z,84.80
2023-05-19T17:36:28.273Z,86.10
2023-05-19T17:38:55.236Z,86.20
2023-05-19T17:41:22.794Z,86.40
2023-05-19T17:43:49.750Z,87.10
2023-05-19T17:46:16.767Z,86.80
2023-05-19T17:48:43.944Z,85.30
2023-05-19T17:51:11.485Z,85.50
2023-05-19T17:53:38.822Z,86.10
2023-05-19T17:56:08.821Z,87.30
2023-05-19T17:58:36.035Z,85.70
2023-05-19T18:01:03.192Z,86.40
2023-05-19T18:03:30.783Z,86.90
2023-05-19T18:05:58.729Z,86.70
2023-05-19T18:08:26.142Z,88.40
2023-05-19T18:10:54.994Z,87.50
2023-05-19T18:13:23.591Z,87.60
2023-05-19T18:15:52.603Z,88.00
2023-05-19T18:18:19.669Z,87.90
2023-05-19T18:20:46.670Z,88.10
2023-05-19T18:23:13.589Z,86.90
2023-05-19T18:25:40.618Z,85.90
2023-05-19T18:28:08.520Z,86.40
2023-05-19T18:30:36.074Z,87.40
2023-05-19T18:33:04.084Z,87.70
2023-05-19T18:35:31.111Z,87.10
2023-05-19T18:37:58.035Z,87.20
2023-05-19T18:40:24.903Z,86.60
2023-05-19T18:42:51.841Z,88.00
2023-05-19T18:45:18.986Z,88.60
2023-05-19T18:47:47.112Z,87.60
2023-05-19T18:50:14.498Z,86.10
2023-05-19T18:52:41.461Z,85.90
2023-05-19T18:55:08.924Z,87.00
2023-05-19T18:57:35.987Z,88.40
2023-05-19T19:00:04.253Z,89.20
2023-05-19T19:02:31.415Z,89.60
2023-05-19T19:04:58.620Z,88.90
2023-05-19T19:07:27.706Z,89.30
2023-05-19T19:09:54.631Z,87.40
2023-05-19T19:12:21.474Z,87.20
2023-05-19T19:14:48.524Z,88.00
2023-05-19T19:17:15.893Z,87.90
2023-05-19T19:19:43.015Z,88.00
2023-05-19T19:22:10.080Z,87.70
2023-05-19T19:24:37.019Z,88.10
2023-05-19T19:27:04.265Z,87.00
2023-05-19T19:29:31.189Z,87.80
2023-05-19T19:31:58.123Z,88.00
2023-05-19T19:34:25.164Z,88.10
2023-05-19T19:36:52.290Z,85.80
2023-05-19T19:39:19.320Z,86.90
2023-05-19T19:41:46.424Z,87.80
2023-05-19T19:44:13.738Z,88.70
2023-05-19T19:46:40.763Z,88.20
2023-05-19T19:49:07.846Z,88.50
2023-05-19T19:51:34.714Z,88.70
2023-05-19T19:54:01.652Z,88.30
2023-05-19T19:56:28.605Z,88.20
2023-05-19T19:58:59.096Z,88.50
2023-05-19T20:01:27.340Z,88.30
2023-05-19T20:03:55.963Z,88.90
2023-05-19T20:06:23.431Z,87.10
2023-05-19T20:08:50.542Z,87.50
2023-05-19T20:11:17.564Z,87.30
2023-05-19T20:13:44.566Z,87.10
2023-05-19T20:16:11.561Z,88.10
2023-05-19T20:18:39.458Z,88.40
2023-05-19T20:21:06.536Z,89.10
2023-05-19T20:23:33.460Z,87.50
2023-05-19T20:26:12.066Z,87.90
2023-05-19T20:28:39.894Z,89.00
2023-05-19T20:31:07.065Z,88.70
2023-05-19T20:33:34.303Z,87.40
2023-05-19T20:36:01.235Z,87.50
2023-05-19T20:38:28.147Z,89.00
2023-05-19T20:40:55.090Z,88.60
2023-05-19T20:43:22.082Z,88.40
2023-05-19T20:45:48.953Z,89.60
2023-05-19T20:48:16.111Z,90.10
2023-05-19T20:50:43.208Z,89.50
2023-05-19T20:53:10.116Z,90.20
2023-05-19T20:55:38.712Z,90.40
2023-05-19T20:58:05.783Z,90.80
2023-05-19T21:00:33.062Z,90.90
2023-05-19T21:03:00.792Z,90.50
2023-05-19T21:05:27.830Z,90.60
2023-05-19T21:07:54.790Z,90.50
2023-05-19T21:10:21.798Z,90.20
2023-05-19T21:12:48.914Z,90.70
2023-05-19T21:15:15.839Z,90.90
2023-05-19T21:17:46.576Z,91.50
2023-05-19T21:20:13.651Z,91.50
2023-05-19T21:22:41.070Z,91.50
2023-05-19T21:25:08.576Z,91.80
2023-05-19T21:27:36.333Z,91.40
2023-05-19T21:30:03.427Z,92.30
2023-05-19T21:32:30.511Z,92.00
2023-05-19T21:34:57.555Z,92.40
2023-05-19T21:37:24.468Z,92.40
2023-05-19T21:39:51.591Z,92.90
2023-05-19T21:42:18.643Z,93.20
2023-05-19T21:44:45.688Z,93.00
2023-05-19T21:47:12.622Z,93.30
2023-05-19T21:49:40.174Z,93.60
2023-05-19T21:52:10.387Z,93.60
2023-05-19T21:54:38.656Z,93.50
2023-05-19T21:57:05.867Z,93.90
2023-05-19T21:59:32.832Z,93.70
2023-05-19T22:01:59.841Z,93.50
2023-05-19T22:04:27.102Z,93.10
2023-05-19T22:06:53.991Z,93.70
2023-05-19T22:09:21.648Z,93.70
2023-05-19T22:11:48.468Z,93.80
2023-05-19T22:14:15.462Z,93.70
2023-05-19T22:16:42.474Z,93.50
2023-05-19T22:19:10.540Z,94.20
2023-05-19T22:21:37.573Z,94.40
2023-05-19T22:24:04.637Z,95.00
2023-05-19T22:26:31.596Z,95.20
2023-05-19T22:28:58.532Z,95.50
2023-05-19T22:31:25.382Z,95.60
2023-05-19T22:33:52.410Z,96.00
2023-05-19T22:36:19.301Z,96.50
2023-05-19T22:38:46.186Z,96.60
2023-05-19T22:41:13.078Z,96.70
2023-05-19T22:43:40.030Z,97.20
2023-05-19T22:46:06.982Z,97.80
2023-05-19T22:48:33.964Z,98.20
2023-05-19T22:51:01.002Z,98.50
2023-05-19T22:53:27.945Z,99.00
2023-05-19T22:55:54.916Z,98.40
2023-05-19T22:58:21.785Z,98.90
2023-05-19T23:00:48.694Z,99.00
2023-05-19T23:03:15.751Z,99.00
2023-05-19T23:05:43.125Z,99.20
2023-05-19T23:08:10.094Z,99.10
2023-05-19T23:10:38.045Z,99.20
2023-05-19T23:13:05.002Z,99.20
2023-05-19T23:15:32.204Z,99.30
2023-05-19T23:18:01.176Z,98.90
2023-05-19T23:20:28.130Z,99.40
2023-05-19T23:22:55.024Z,99.90
2023-05-19T23:25:22.116Z,99.90
2023-05-19T23:27:49.042Z,99.90
2023-05-19T23:30:16.095Z,99.90
2023-05-19T23:32:43.104Z,99.90
2023-05-19T23:35:15.554Z,99.90
2023-05-19T23:37:42.862Z,99.90
2023-05-19T23:40:10.227Z,99.90
2023-05-19T23:42:37.382Z,99.90
2023-05-19T23:45:05.529Z,99.90
2023-05-19T23:47:32.474Z,99.90
2023-05-19T23:49:59.406Z,99.90
2023-05-19T23:52:26.349Z,99.90
2023-05-19T23:54:53.354Z,99.90
2023-05-19T23:57:20.237Z,99.90
2023-05-19T23:59:47.265Z,99.90
